Time;durP1;ratioP1;P1;durP2;ratioP2;P2;SDS_P1;SDS_P2;PMS_P1;PMS_P2;Temp;Humidity;BMP_temperature;BMP_pressure;BME280_temperature;BME280_humidity;BME280_pressure;Samples;Min_cycle;Max_cycle;Signal;HPM_P1;HPM_P2
2021/12/29 00:00:56;;;;;;;7.13;2.55;;;;;;;;;;5017027;28;20049;-67
2021/12/29 00:03:22;;;;;;;6.53;2.58;;;;;;;;;;5011431;28;20053;-67
2021/12/29 00:05:48;;;;;;;5.72;3.17;;;;;;;;;;5017882;28;20052;-67
2021/12/29 00:08:15;;;;;;;3.90;2.17;;;;;;;;;;5007665;28;20061;-67
2021/12/29 00:10:42;;;;;;;5.25;2.72;;;;;;;;;;5012196;28;20084;-67
2021/12/29 00:13:08;;;;;;;6.18;2.70;;;;;;;;;;5017203;28;20064;-67
2021/12/29 00:15:36;;;;;;;5.75;2.85;;;;;;;;;;5002827;28;20525;-67
2021/12/29 00:18:02;;;;;;;5.35;2.80;;;;;;;;;;5018283;28;20426;-67
2021/12/29 00:20:29;;;;;;;7.82;3.15;;;;;;;;;;5004442;28;20061;-67
2021/12/29 00:23:00;;;;;;;5.25;3.00;;;;;;;;;;5010113;28;20045;-67
2021/12/29 00:25:27;;;;;;;7.05;3.20;;;;;;;;;;5009452;28;20053;-66
2021/12/29 00:27:55;;;;;;;5.63;2.88;;;;;;;;;;5016637;28;20053;-67
2021/12/29 00:30:23;;;;;;;5.53;2.35;;;;;;;;;;5016482;28;20192;-67
2021/12/29 00:32:49;;;;;;;4.30;2.47;;;;;;;;;;4996016;28;20056;-67
2021/12/29 00:35:16;;;;;;;7.45;2.65;;;;;;;;;;5021722;28;20045;-67
2021/12/29 00:37:42;;;;;;;6.45;2.33;;;;;;;;;;5011824;28;20091;-67
2021/12/29 00:40:10;;;;;;;5.95;2.40;;;;;;;;;;5016106;28;20057;-67
2021/12/29 00:42:38;;;;;;;5.57;2.10;;;;;;;;;;5010152;28;20053;-67
2021/12/29 00:45:05;;;;;;;3.45;2.03;;;;;;;;;;5015770;28;20049;-67
2021/12/29 00:47:34;;;;;;;5.95;2.55;;;;;;;;;;5015817;28;20072;-67
2021/12/29 00:50:00;;;;;;;7.80;2.80;;;;;;;;;;5002837;28;20507;-67
2021/12/29 00:52:27;;;;;;;6.65;2.83;;;;;;;;;;5010061;28;20277;-67
2021/12/29 00:54:53;;;;;;;7.00;3.38;;;;;;;;;;5006195;28;20159;-67
2021/12/29 00:57:19;;;;;;;6.20;3.03;;;;;;;;;;5016150;28;20072;-67
2021/12/29 00:59:46;;;;;;;5.43;3.40;;;;;;;;;;5001003;28;20088;-67
2021/12/29 01:02:12;;;;;;;7.05;3.25;;;;;;;;;;5003766;28;20050;-67
2021/12/29 01:04:38;;;;;;;9.20;3.70;;;;;;;;;;5009839;28;20654;-67
2021/12/29 01:07:05;;;;;;;6.97;3.20;;;;;;;;;;5005368;28;20049;-67
2021/12/29 01:09:31;;;;;;;6.40;2.85;;;;;;;;;;5019286;28;20395;-67
2021/12/29 01:11:59;;;;;;;6.40;3.20;;;;;;;;;;5012022;28;20045;-67
2021/12/29 01:14:26;;;;;;;7.15;3.67;;;;;;;;;;5019970;28;20061;-68
2021/12/29 01:16:53;;;;;;;7.03;3.53;;;;;;;;;;5017016;28;20410;-67
2021/12/29 01:19:21;;;;;;;5.50;3.08;;;;;;;;;;5004547;28;20049;-67
2021/12/29 01:21:50;;;;;;;7.60;3.45;;;;;;;;;;5018893;28;20042;-67
2021/12/29 01:24:18;;;;;;;9.70;3.95;;;;;;;;;;4993492;28;20052;-67
2021/12/29 01:26:44;;;;;;;9.07;3.40;;;;;;;;;;5002585;28;20589;-67
2021/12/29 01:29:11;;;;;;;6.38;3.03;;;;;;;;;;4997490;28;20049;-67
2021/12/29 01:31:38;;;;;;;7.60;3.28;;;;;;;;;;5015268;28;20053;-67
2021/12/29 01:34:07;;;;;;;8.65;3.45;;;;;;;;;;5007924;28;20508;-67
2021/12/29 01:36:34;;;;;;;10.20;3.42;;;;;;;;;;5010433;28;20049;-67
2021/12/29 01:39:01;;;;;;;10.27;3.25;;;;;;;;;;5015687;28;20060;-67
2021/12/29 01:41:28;;;;;;;6.47;3.20;;;;;;;;;;5004339;28;20049;-67
2021/12/29 01:43:54;;;;;;;6.30;3.55;;;;;;;;;;5002782;28;20375;-67
2021/12/29 01:46:21;;;;;;;7.95;3.42;;;;;;;;;;5008913;28;20495;-67
2021/12/29 01:48:47;;;;;;;8.02;3.40;;;;;;;;;;5013243;28;20053;-67
2021/12/29 01:51:17;;;;;;;6.93;2.95;;;;;;;;;;5018130;28;20057;-67
2021/12/29 01:53:49;;;;;;;8.40;3.55;;;;;;;;;;5010564;28;20218;-67
2021/12/29 01:56:16;;;;;;;9.00;3.70;;;;;;;;;;5014891;28;20387;-67
2021/12/29 01:58:42;;;;;;;11.55;4.50;;;;;;;;;;5005289;28;20303;-67
2021/12/29 02:01:08;;;;;;;9.85;4.07;;;;;;;;;;5007696;28;20573;-67
2021/12/29 02:03:35;;;;;;;11.10;4.30;;;;;;;;;;5000226;28;20105;-67
2021/12/29 02:06:01;;;;;;;13.68;5.13;;;;;;;;;;5003197;28;20305;-67
2021/12/29 02:08:28;;;;;;;9.43;4.35;;;;;;;;;;5007455;28;20084;-67
2021/12/29 02:10:57;;;;;;;16.33;5.50;;;;;;;;;;4995218;28;20052;-67
2021/12/29 02:13:23;;;;;;;11.18;5.22;;;;;;;;;;5000799;28;20054;-67
2021/12/29 02:15:50;;;;;;;10.43;6.18;;;;;;;;;;4993975;28;20041;-67
2021/12/29 02:18:19;;;;;;;9.20;5.00;;;;;;;;;;5003603;28;20748;-67
2021/12/29 02:20:47;;;;;;;9.65;5.40;;;;;;;;;;5016603;28;20054;-67
2021/12/29 02:23:18;;;;;;;11.65;5.60;;;;;;;;;;5002662;28;20049;-68
2021/12/29 02:25:48;;;;;;;11.75;5.22;;;;;;;;;;5015132;28;20065;-67
2021/12/29 02:28:28;;;;;;;12.95;5.35;;;;;;;;;;5006795;28;20191;-67
2021/12/29 02:30:55;;;;;;;12.23;4.03;;;;;;;;;;5003834;28;20474;-67
2021/12/29 02:33:23;;;;;;;9.65;4.47;;;;;;;;;;4994273;28;20056;-67
2021/12/29 02:35:49;;;;;;;11.07;4.00;;;;;;;;;;5019709;28;20077;-67
2021/12/29 02:38:17;;;;;;;8.93;4.07;;;;;;;;;;5012867;28;20057;-66
2021/12/29 02:40:43;;;;;;;7.25;4.05;;;;;;;;;;5012154;28;20334;-66
2021/12/29 02:43:12;;;;;;;7.50;4.22;;;;;;;;;;5012818;28;20060;-66
2021/12/29 02:45:39;;;;;;;11.13;3.97;;;;;;;;;;5008802;28;20064;-66
2021/12/29 02:48:06;;;;;;;9.05;3.78;;;;;;;;;;5019121;28;20060;-67
2021/12/29 02:50:32;;;;;;;11.00;4.35;;;;;;;;;;5011277;28;20057;-66
2021/12/29 02:52:58;;;;;;;9.23;3.90;;;;;;;;;;5018175;28;20053;-66
2021/12/29 02:55:24;;;;;;;9.25;3.88;;;;;;;;;;5004555;28;20414;-66
2021/12/29 02:57:51;;;;;;;9.82;4.18;;;;;;;;;;5014255;28;20052;-66
2021/12/29 03:00:17;;;;;;;9.73;4.30;;;;;;;;;;5018164;28;20402;-66
2021/12/29 03:02:44;;;;;;;10.23;4.05;;;;;;;;;;5010094;28;20076;-66
2021/12/29 03:05:10;;;;;;;9.38;4.50;;;;;;;;;;5018359;28;20200;-66
2021/12/29 03:07:37;;;;;;;8.70;3.80;;;;;;;;;;5008194;28;20115;-66
2021/12/29 03:10:04;;;;;;;8.80;3.70;;;;;;;;;;5007929;28;20689;-66
2021/12/29 03:12:30;;;;;;;7.18;3.25;;;;;;;;;;5009626;28;20064;-66
2021/12/29 03:14:58;;;;;;;10.38;3.20;;;;;;;;;;5016368;28;20057;-66
2021/12/29 03:17:24;;;;;;;9.85;3.40;;;;;;;;;;5017944;28;20049;-66
2021/12/29 03:19:52;;;;;;;7.10;2.60;;;;;;;;;;5025829;28;20060;-66
2021/12/29 03:22:18;;;;;;;8.07;3.40;;;;;;;;;;5017304;28;20485;-66
2021/12/29 03:24:44;;;;;;;9.98;4.30;;;;;;;;;;5000363;28;20050;-66
2021/12/29 03:27:11;;;;;;;11.05;3.60;;;;;;;;;;5012340;28;20049;-67
2021/12/29 03:29:37;;;;;;;10.77;3.90;;;;;;;;;;5011469;28;20677;-67
2021/12/29 03:32:08;;;;;;;8.68;3.40;;;;;;;;;;5011230;28;20052;-67
2021/12/29 03:34:34;;;;;;;15.13;4.32;;;;;;;;;;5014408;28;20060;-66
2021/12/29 03:37:00;;;;;;;10.57;3.55;;;;;;;;;;5002544;28;20046;-66
2021/12/29 03:39:27;;;;;;;12.75;4.15;;;;;;;;;;5013127;28;20545;-66
2021/12/29 03:41:54;;;;;;;13.48;4.70;;;;;;;;;;5000975;28;20042;-67
2021/12/29 03:44:20;;;;;;;11.85;4.07;;;;;;;;;;5005501;28;20045;-66
2021/12/29 03:46:46;;;;;;;11.50;4.80;;;;;;;;;;5017361;28;20056;-67
2021/12/29 03:49:12;;;;;;;14.02;4.28;;;;;;;;;;5006690;28;20060;-67
2021/12/29 03:51:39;;;;;;;11.02;4.03;;;;;;;;;;5010840;28;20407;-66
2021/12/29 03:54:05;;;;;;;12.73;3.80;;;;;;;;;;5008617;28;20601;-66
2021/12/29 03:56:32;;;;;;;13.82;4.13;;;;;;;;;;5006910;28;20395;-66
2021/12/29 03:58:58;;;;;;;12.05;4.55;;;;;;;;;;5009160;28;20629;-66
2021/12/29 04:01:25;;;;;;;14.20;4.88;;;;;;;;;;5017491;28;20057;-66
2021/12/29 04:03:52;;;;;;;8.55;4.15;;;;;;;;;;5009543;28;20053;-66
2021/12/29 04:06:20;;;;;;;11.93;3.95;;;;;;;;;;5004389;28;20045;-66
2021/12/29 04:08:47;;;;;;;14.27;3.88;;;;;;;;;;5017198;28;20054;-67
2021/12/29 04:11:13;;;;;;;13.82;3.70;;;;;;;;;;5008915;28;20434;-67
2021/12/29 04:13:43;;;;;;;9.20;4.05;;;;;;;;;;5015710;28;20083;-66
2021/12/29 04:16:16;;;;;;;12.05;4.35;;;;;;;;;;5004791;28;20050;-66
2021/12/29 04:18:55;;;;;;;13.65;3.70;;;;;;;;;;5011218;28;20123;-67
2021/12/29 04:21:22;;;;;;;12.23;3.80;;;;;;;;;;5016195;28;20049;-66
2021/12/29 04:23:48;;;;;;;10.85;3.20;;;;;;;;;;5007190;28;20050;-67
2021/12/29 04:26:18;;;;;;;9.25;3.60;;;;;;;;;;5016253;28;20502;-67
2021/12/29 04:28:45;;;;;;;8.80;3.20;;;;;;;;;;5007713;28;20054;-67
2021/12/29 04:31:12;;;;;;;11.75;4.35;;;;;;;;;;5011265;28;20475;-67
2021/12/29 04:33:39;;;;;;;11.50;4.18;;;;;;;;;;5001050;28;20542;-66
2021/12/29 04:36:06;;;;;;;13.32;3.50;;;;;;;;;;5013515;28;20522;-67
2021/12/29 04:38:33;;;;;;;10.38;3.63;;;;;;;;;;5017438;28;20080;-67
2021/12/29 04:40:59;;;;;;;13.30;3.72;;;;;;;;;;5006346;28;20080;-67
2021/12/29 04:43:26;;;;;;;8.07;3.45;;;;;;;;;;5004011;28;20456;-67
2021/12/29 04:45:53;;;;;;;14.20;3.63;;;;;;;;;;5006232;28;20060;-67
2021/12/29 04:48:19;;;;;;;9.02;3.45;;;;;;;;;;5014461;28;20470;-66
2021/12/29 04:50:52;;;;;;;9.48;3.50;;;;;;;;;;5011967;28;20092;-67
2021/12/29 04:53:20;;;;;;;7.18;3.28;;;;;;;;;;5020140;28;20072;-68
2021/12/29 04:55:49;;;;;;;8.37;3.27;;;;;;;;;;5007074;28;20053;-68
2021/12/29 04:58:18;;;;;;;8.80;3.58;;;;;;;;;;4998997;28;20054;-67
2021/12/29 05:00:45;;;;;;;9.32;3.22;;;;;;;;;;5006814;28;20488;-68
2021/12/29 05:03:12;;;;;;;10.10;3.60;;;;;;;;;;5003518;28;20136;-67
2021/12/29 05:05:51;;;;;;;11.55;3.92;;;;;;;;;;4991357;28;20084;-68
2021/12/29 05:08:24;;;;;;;10.30;3.22;;;;;;;;;;5001486;28;20060;-67
2021/12/29 05:10:52;;;;;;;8.48;3.50;;;;;;;;;;5012154;28;20045;-67
2021/12/29 05:13:18;;;;;;;6.85;3.20;;;;;;;;;;5005798;28;20068;-67
2021/12/29 05:15:44;;;;;;;9.93;3.65;;;;;;;;;;5001195;28;20064;-67
2021/12/29 05:18:11;;;;;;;10.55;3.95;;;;;;;;;;5012874;28;20057;-67
2021/12/29 05:20:38;;;;;;;11.63;3.45;;;;;;;;;;5003746;28;20045;-67
2021/12/29 05:23:04;;;;;;;7.07;3.80;;;;;;;;;;5020808;28;20048;-67
2021/12/29 05:25:30;;;;;;;12.57;4.65;;;;;;;;;;5002055;28;20064;-67
2021/12/29 05:27:57;;;;;;;8.48;4.50;;;;;;;;;;5003072;28;20057;-67
2021/12/29 05:30:25;;;;;;;;;;;;;;;;;;5006410;28;20569;-67
2021/12/29 05:32:52;;;;;;;11.35;3.95;;;;;;;;;;5002690;28;19925;-67
2021/12/29 05:35:18;;;;;;;11.07;4.32;;;;;;;;;;5011990;28;20434;-67
2021/12/29 05:37:44;;;;;;;9.55;4.57;;;;;;;;;;5000953;28;20379;-67
2021/12/29 05:40:11;;;;;;;8.75;4.38;;;;;;;;;;5004590;28;20060;-67
2021/12/29 05:42:37;;;;;;;9.15;4.60;;;;;;;;;;4977429;28;20162;-67
2021/12/29 05:45:05;;;;;;;9.05;4.75;;;;;;;;;;5011210;28;20072;-67
2021/12/29 05:47:32;;;;;;;8.45;5.15;;;;;;;;;;5001612;28;20045;-68
2021/12/29 05:49:58;;;;;;;11.27;5.10;;;;;;;;;;4999803;28;20050;-68
2021/12/29 05:52:24;;;;;;;10.70;5.43;;;;;;;;;;5008558;28;20046;-67
2021/12/29 05:54:51;;;;;;;9.10;5.55;;;;;;;;;;4998110;28;20762;-67
2021/12/29 05:57:17;;;;;;;11.43;5.30;;;;;;;;;;5006938;28;20056;-67
2021/12/29 05:59:43;;;;;;;10.88;5.65;;;;;;;;;;5000709;28;20593;-67
2021/12/29 06:02:10;;;;;;;10.07;5.90;;;;;;;;;;5002387;28;20057;-67
2021/12/29 06:04:36;;;;;;;12.57;5.35;;;;;;;;;;4998998;28;20077;-67
2021/12/29 06:07:03;;;;;;;7.95;5.35;;;;;;;;;;4995374;28;20045;-67
2021/12/29 06:09:30;;;;;;;10.18;5.50;;;;;;;;;;4997381;28;20068;-67
2021/12/29 06:11:56;;;;;;;10.70;5.40;;;;;;;;;;4997197;28;20330;-67
2021/12/29 06:14:23;;;;;;;11.07;5.18;;;;;;;;;;5013943;28;20064;-67
2021/12/29 06:16:49;;;;;;;9.73;4.90;;;;;;;;;;5004587;28;20054;-67
2021/12/29 06:19:15;;;;;;;8.27;4.80;;;;;;;;;;5008392;28;20418;-67
2021/12/29 06:21:42;;;;;;;10.20;5.10;;;;;;;;;;5002689;28;20063;-66
2021/12/29 06:24:09;;;;;;;8.32;4.63;;;;;;;;;;4985730;28;20050;-67
2021/12/29 06:26:35;;;;;;;7.38;4.38;;;;;;;;;;4998751;28;20054;-67
2021/12/29 06:29:01;;;;;;;7.55;4.53;;;;;;;;;;4992642;28;20072;-67
2021/12/29 06:31:28;;;;;;;8.13;4.63;;;;;;;;;;5002689;28;20041;-67
2021/12/29 06:33:54;;;;;;;8.13;4.40;;;;;;;;;;5002339;28;20046;-67
2021/12/29 06:36:21;;;;;;;10.43;4.97;;;;;;;;;;4989863;28;20056;-67
2021/12/29 06:38:47;;;;;;;7.22;4.15;;;;;;;;;;4996081;28;20604;-67
2021/12/29 06:41:13;;;;;;;9.88;4.85;;;;;;;;;;5002292;28;20352;-67
2021/12/29 06:43:39;;;;;;;7.53;4.82;;;;;;;;;;5010973;28;20559;-67
2021/12/29 06:46:06;;;;;;;13.65;5.30;;;;;;;;;;4999784;28;20422;-67
2021/12/29 06:48:32;;;;;;;8.43;5.32;;;;;;;;;;5007850;28;20050;-67
2021/12/29 06:50:58;;;;;;;10.60;5.45;;;;;;;;;;5004367;28;20050;-67
2021/12/29 06:53:28;;;;;;;8.38;4.90;;;;;;;;;;4990108;28;20055;-67
2021/12/29 06:55:55;;;;;;;8.80;4.80;;;;;;;;;;5001436;28;20427;-68
2021/12/29 06:58:21;;;;;;;6.60;5.03;;;;;;;;;;4993847;28;20049;-67
2021/12/29 07:00:47;;;;;;;11.65;5.88;;;;;;;;;;5005034;28;20045;-67
2021/12/29 07:03:14;;;;;;;9.95;6.07;;;;;;;;;;5002305;28;20060;-67
2021/12/29 07:05:40;;;;;;;12.05;5.60;;;;;;;;;;5003670;28;20348;-67
2021/12/29 07:08:07;;;;;;;10.63;5.28;;;;;;;;;;5005107;28;20053;-67
2021/12/29 07:10:33;;;;;;;13.50;5.60;;;;;;;;;;4982041;28;20057;-67
2021/12/29 07:12:59;;;;;;;8.80;5.13;;;;;;;;;;4999681;28;20419;-67
2021/12/29 07:15:26;;;;;;;7.80;5.15;;;;;;;;;;4996112;28;20046;-67
2021/12/29 07:17:52;;;;;;;11.77;5.18;;;;;;;;;;5000335;28;20811;-67
2021/12/29 07:20:18;;;;;;;14.20;6.10;;;;;;;;;;4988543;28;20306;-67
2021/12/29 07:22:44;;;;;;;13.55;5.57;;;;;;;;;;5012349;28;20054;-67
2021/12/29 07:25:11;;;;;;;12.30;6.13;;;;;;;;;;5007513;28;20057;-67
2021/12/29 07:27:37;;;;;;;15.32;6.78;;;;;;;;;;5002101;28;20049;-67
2021/12/29 07:30:04;;;;;;;13.52;6.88;;;;;;;;;;5009585;28;20499;-67
2021/12/29 07:32:31;;;;;;;13.18;5.95;;;;;;;;;;4995044;28;20050;-67
2021/12/29 07:34:57;;;;;;;11.95;6.18;;;;;;;;;;5002441;28;20054;-67
2021/12/29 07:37:24;;;;;;;9.52;5.53;;;;;;;;;;5007037;28;20046;-67
2021/12/29 07:39:50;;;;;;;9.65;5.15;;;;;;;;;;5004258;28;20461;-67
2021/12/29 07:42:16;;;;;;;10.40;5.78;;;;;;;;;;5008323;28;20100;-67
2021/12/29 07:44:45;;;;;;;11.07;6.15;;;;;;;;;;4998541;28;20495;-67
2021/12/29 07:47:13;;;;;;;11.23;5.63;;;;;;;;;;5001692;28;20423;-67
2021/12/29 07:49:40;;;;;;;10.50;5.03;;;;;;;;;;4996005;28;20384;-68
2021/12/29 07:52:06;;;;;;;10.25;4.88;;;;;;;;;;5010558;28;20286;-67
2021/12/29 07:54:33;;;;;;;9.80;5.53;;;;;;;;;;4999249;28;20473;-67
2021/12/29 07:56:59;;;;;;;12.75;5.35;;;;;;;;;;5005380;28;20450;-67
2021/12/29 07:59:25;;;;;;;13.57;5.72;;;;;;;;;;5006492;28;20052;-66
2021/12/29 08:01:51;;;;;;;11.02;4.85;;;;;;;;;;4995053;28;20045;-66
2021/12/29 08:04:21;;;;;;;14.30;5.78;;;;;;;;;;5004218;28;20053;-66
2021/12/29 08:06:47;;;;;;;12.02;5.30;;;;;;;;;;4997443;28;20050;-67
2021/12/29 08:09:14;;;;;;;15.25;5.82;;;;;;;;;;5006288;28;20484;-65
2021/12/29 08:11:41;;;;;;;8.55;5.65;;;;;;;;;;5001779;28;20049;-67
2021/12/29 08:14:07;;;;;;;12.70;5.43;;;;;;;;;;4995847;28;20041;-67
2021/12/29 08:16:33;;;;;;;15.85;6.35;;;;;;;;;;5004653;28;20418;-67
2021/12/29 08:19:00;;;;;;;14.02;6.78;;;;;;;;;;5008514;28;20054;-67
2021/12/29 08:21:26;;;;;;;15.48;6.50;;;;;;;;;;5019321;28;20408;-67
2021/12/29 08:23:53;;;;;;;13.85;6.70;;;;;;;;;;5003812;28;20426;-67
2021/12/29 08:26:20;;;;;;;16.30;6.28;;;;;;;;;;5012711;28;20053;-67
2021/12/29 08:28:46;;;;;;;14.88;6.53;;;;;;;;;;5005185;28;20394;-67
2021/12/29 08:31:13;;;;;;;15.68;6.95;;;;;;;;;;4997020;28;20065;-67
2021/12/29 08:33:39;;;;;;;18.25;6.57;;;;;;;;;;5009929;28;20152;-67
2021/12/29 08:36:06;;;;;;;11.18;7.30;;;;;;;;;;5004880;28;20048;-67
2021/12/29 08:38:33;;;;;;;11.85;6.70;;;;;;;;;;5013294;28;20056;-67
2021/12/29 08:41:00;;;;;;;22.77;7.53;;;;;;;;;;4999962;28;20049;-67
2021/12/29 08:43:26;;;;;;;15.18;7.93;;;;;;;;;;5005391;28;20057;-67
2021/12/29 08:45:53;;;;;;;16.48;7.20;;;;;;;;;;5006455;28;20526;-67
2021/12/29 08:48:19;;;;;;;14.40;7.97;;;;;;;;;;5004323;28;20049;-67
2021/12/29 08:50:46;;;;;;;22.42;8.57;;;;;;;;;;5011348;28;20414;-67
2021/12/29 08:53:12;;;;;;;18.33;8.07;;;;;;;;;;5001827;28;20374;-67
2021/12/29 08:55:46;;;;;;;19.27;8.50;;;;;;;;;;5006271;28;20054;-67
2021/12/29 08:58:14;;;;;;;18.17;8.00;;;;;;;;;;4990811;28;20084;-66
2021/12/29 09:00:40;;;;;;;17.92;8.15;;;;;;;;;;5010105;28;20056;-67
2021/12/29 09:03:07;;;;;;;15.68;8.43;;;;;;;;;;5009505;28;20089;-67
2021/12/29 09:05:34;;;;;;;17.60;7.55;;;;;;;;;;5001786;28;20577;-67
2021/12/29 09:08:01;;;;;;;16.90;8.52;;;;;;;;;;5010611;28;20046;-67
2021/12/29 09:10:27;;;;;;;15.98;8.50;;;;;;;;;;4999619;28;20378;-67
2021/12/29 09:12:54;;;;;;;18.35;8.15;;;;;;;;;;4999819;28;20434;-66
2021/12/29 09:15:20;;;;;;;13.38;7.88;;;;;;;;;;5001356;28;20598;-66
2021/12/29 09:17:47;;;;;;;18.63;8.25;;;;;;;;;;5015774;28;20057;-66
2021/12/29 09:20:24;;;;;;;15.07;9.23;;;;;;;;;;5011864;28;20057;-67
2021/12/29 09:22:51;;;;;;;17.77;9.00;;;;;;;;;;5006967;28;20057;-66
2021/12/29 09:25:18;;;;;;;14.98;8.70;;;;;;;;;;5003773;28;20085;-66
2021/12/29 09:27:47;;;;;;;15.80;8.85;;;;;;;;;;4995306;28;20053;-67
2021/12/29 09:30:13;;;;;;;21.90;9.38;;;;;;;;;;5010634;28;20064;-66
2021/12/29 09:32:39;;;;;;;17.48;10.02;;;;;;;;;;5009883;28;20061;-66
2021/12/29 09:35:06;;;;;;;17.63;9.15;;;;;;;;;;5005386;28;20060;-66
2021/12/29 09:37:32;;;;;;;21.45;10.02;;;;;;;;;;5008840;28;20050;-66
2021/12/29 09:39:59;;;;;;;21.25;9.48;;;;;;;;;;4991402;28;20480;-67
2021/12/29 09:42:25;;;;;;;18.80;9.98;;;;;;;;;;5008638;28;20057;-67
2021/12/29 09:44:52;;;;;;;14.88;9.05;;;;;;;;;;5003612;28;20418;-67
2021/12/29 09:47:19;;;;;;;18.70;8.57;;;;;;;;;;5007948;28;20070;-67
2021/12/29 09:49:45;;;;;;;21.05;9.35;;;;;;;;;;5008054;28;20389;-68
2021/12/29 09:52:11;;;;;;;16.92;8.48;;;;;;;;;;4996680;28;20081;-67
2021/12/29 09:54:38;;;;;;;16.13;9.10;;;;;;;;;;5015236;28;20052;-68
2021/12/29 09:57:04;;;;;;;16.90;11.40;;;;;;;;;;5000380;28;20085;-67
2021/12/29 09:59:30;;;;;;;18.80;9.32;;;;;;;;;;5007870;28;20467;-67
2021/12/29 10:02:01;;;;;;;14.10;9.27;;;;;;;;;;4999272;28;20133;-66
2021/12/29 10:04:28;;;;;;;16.98;9.25;;;;;;;;;;5007580;28;20054;-66
2021/12/29 10:06:54;;;;;;;15.38;8.15;;;;;;;;;;5004560;28;20088;-66
2021/12/29 10:09:22;;;;;;;16.25;8.20;;;;;;;;;;5000047;28;20399;-66
2021/12/29 10:11:48;;;;;;;15.10;8.55;;;;;;;;;;5007440;28;20046;-67
2021/12/29 10:14:15;;;;;;;16.50;8.45;;;;;;;;;;5009051;28;20051;-68
2021/12/29 10:16:45;;;;;;;18.25;8.70;;;;;;;;;;5004319;28;20057;-67
2021/12/29 10:19:12;;;;;;;19.02;8.60;;;;;;;;;;5002605;28;20459;-66
2021/12/29 10:21:48;;;;;;;17.25;8.35;;;;;;;;;;5014801;28;20404;-66
2021/12/29 10:24:16;;;;;;;14.98;8.43;;;;;;;;;;5011657;28;20065;-68
2021/12/29 10:26:44;;;;;;;16.08;8.60;;;;;;;;;;5000063;28;20538;-68
2021/12/29 10:29:15;;;;;;;18.95;8.52;;;;;;;;;;5007322;28;20054;-66
2021/12/29 10:31:43;;;;;;;17.92;9.18;;;;;;;;;;4990695;28;20055;-66
2021/12/29 10:34:11;;;;;;;16.88;8.85;;;;;;;;;;4995163;28;20042;-68
2021/12/29 10:36:41;;;;;;;15.07;8.02;;;;;;;;;;4985959;28;20314;-68
2021/12/29 10:39:13;;;;;;;17.73;9.60;;;;;;;;;;4997917;28;20268;-66
2021/12/29 10:41:51;;;;;;;11.43;8.70;;;;;;;;;;5001595;28;20072;-68
2021/12/29 10:44:27;;;;;;;13.32;8.27;;;;;;;;;;4994778;28;20076;-68
2021/12/29 10:46:56;;;;;;;16.83;8.32;;;;;;;;;;5002102;28;20049;-65
2021/12/29 10:49:24;;;;;;;16.50;9.10;;;;;;;;;;4995122;28;20136;-65
2021/12/29 10:51:51;;;;;;;16.58;9.45;;;;;;;;;;5003279;28;20306;-65
2021/12/29 10:54:19;;;;;;;18.40;8.93;;;;;;;;;;4992537;28;20057;-66
2021/12/29 10:56:56;;;;;;;23.67;8.82;;;;;;;;;;4999119;28;20097;-66
2021/12/29 10:59:25;;;;;;;19.20;7.53;;;;;;;;;;5009395;28;20050;-68
2021/12/29 11:01:58;;;;;;;15.07;8.23;;;;;;;;;;5038336;28;21400;-66
2021/12/29 11:04:25;;;;;;;12.20;8.23;;;;;;;;;;5017152;28;20112;-66
2021/12/29 11:06:56;;;;;;;10.57;7.38;;;;;;;;;;5009179;28;20560;-66
2021/12/29 11:09:27;;;;;;;13.32;7.93;;;;;;;;;;5016483;28;20473;-67
2021/12/29 11:11:53;;;;;;;12.98;7.20;;;;;;;;;;5007961;28;20049;-67
2021/12/29 11:14:24;;;;;;;14.77;7.55;;;;;;;;;;5010344;28;20525;-67
2021/12/29 11:17:02;;;;;;;13.95;6.70;;;;;;;;;;5008077;28;20058;-67
2021/12/29 11:19:29;;;;;;;14.38;7.93;;;;;;;;;;5011876;28;20811;-67
2021/12/29 11:22:08;;;;;;;11.63;8.05;;;;;;;;;;5012844;28;20475;-67
2021/12/29 11:24:34;;;;;;;13.75;7.70;;;;;;;;;;5010157;28;20056;-67
2021/12/29 11:27:07;;;;;;;12.02;7.22;;;;;;;;;;5010303;28;20422;-66
2021/12/29 11:29:34;;;;;;;14.68;8.38;;;;;;;;;;5007802;28;20418;-66
2021/12/29 11:32:02;;;;;;;12.15;8.02;;;;;;;;;;5018544;28;20049;-67
2021/12/29 11:34:29;;;;;;;12.52;8.30;;;;;;;;;;5003851;28;20065;-67
2021/12/29 11:36:59;;;;;;;14.68;8.55;;;;;;;;;;5016287;28;20172;-66
2021/12/29 11:39:26;;;;;;;14.57;8.93;;;;;;;;;;5012758;28;20099;-66
2021/12/29 11:41:52;;;;;;;17.17;9.75;;;;;;;;;;5004381;28;20054;-66
2021/12/29 11:44:19;;;;;;;12.88;8.55;;;;;;;;;;5011541;28;20057;-66
2021/12/29 11:46:45;;;;;;;14.88;8.77;;;;;;;;;;5008183;28;20516;-67
2021/12/29 11:49:11;;;;;;;13.32;8.95;;;;;;;;;;5016652;28;20050;-66
2021/12/29 11:51:47;;;;;;;15.48;9.13;;;;;;;;;;5008706;28;20053;-67
2021/12/29 11:54:17;;;;;;;13.73;8.68;;;;;;;;;;5015008;28;20418;-66
2021/12/29 11:56:43;;;;;;;15.60;9.23;;;;;;;;;;5008607;28;20057;-67
2021/12/29 11:59:10;;;;;;;18.13;9.60;;;;;;;;;;5006121;28;20554;-66
2021/12/29 12:01:55;;;;;;;15.40;8.60;;;;;;;;;;5015641;28;20212;-67
2021/12/29 12:04:22;;;;;;;14.65;8.48;;;;;;;;;;5009688;28;20053;-66
2021/12/29 12:06:58;;;;;;;11.00;7.80;;;;;;;;;;5016818;28;20485;-66
2021/12/29 12:09:25;;;;;;;13.93;9.18;;;;;;;;;;5003383;28;20060;-66
2021/12/29 12:11:53;;;;;;;12.30;8.63;;;;;;;;;;5004876;28;20146;-66
2021/12/29 12:14:42;;;;;;;11.93;7.80;;;;;;;;;;5001488;28;20498;-66
2021/12/29 12:17:10;;;;;;;11.38;7.75;;;;;;;;;;5002150;28;20050;-66
2021/12/29 12:19:36;;;;;;;12.63;8.02;;;;;;;;;;5003300;28;20053;-66
2021/12/29 12:22:13;;;;;;;16.75;8.48;;;;;;;;;;4996112;28;20054;-66
2021/12/29 12:24:41;;;;;;;12.85;8.20;;;;;;;;;;4996870;28;20046;-66
2021/12/29 12:27:11;;;;;;;12.18;7.70;;;;;;;;;;4991564;28;20079;-66
2021/12/29 12:29:38;;;;;;;13.23;7.85;;;;;;;;;;5003124;28;20438;-68
2021/12/29 12:32:07;;;;;;;12.10;8.07;;;;;;;;;;4992828;28;20050;-67
2021/12/29 12:34:33;;;;;;;;;;;;;;;;;;5002513;28;20046;-67
2021/12/29 12:37:01;;;;;;;10.95;7.53;;;;;;;;;;4996510;28;19929;-67
2021/12/29 12:39:28;;;;;;;20.27;7.47;;;;;;;;;;4987738;28;20541;-67
2021/12/29 12:41:56;;;;;;;10.10;7.15;;;;;;;;;;5001554;28;20487;-67
2021/12/29 12:44:30;;;;;;;10.82;6.45;;;;;;;;;;4998079;28;20419;-67
2021/12/29 12:47:06;;;;;;;16.33;6.90;;;;;;;;;;4989379;28;20050;-66
2021/12/29 12:49:39;;;;;;;11.10;6.88;;;;;;;;;;4994194;28;20046;-68
2021/12/29 12:52:10;;;;;;;11.63;6.25;;;;;;;;;;4996827;28;20060;-67
2021/12/29 12:54:44;;;;;;;11.50;6.32;;;;;;;;;;4997218;28;20050;-67
2021/12/29 12:57:11;;;;;;;11.77;7.32;;;;;;;;;;4994160;28;20062;-67
2021/12/29 12:59:39;;;;;;;10.38;6.68;;;;;;;;;;5003592;28;20379;-66
2021/12/29 13:02:17;;;;;;;12.32;6.47;;;;;;;;;;4994156;28;20046;-67
2021/12/29 13:05:05;;;;;;;11.52;6.38;;;;;;;;;;4999503;28;20054;-67
2021/12/29 13:07:32;;;;;;;13.65;6.55;;;;;;;;;;4988652;28;20061;-66
2021/12/29 13:09:59;;;;;;;12.38;7.07;;;;;;;;;;4998482;28;20075;-66
2021/12/29 13:12:29;;;;;;;10.93;6.40;;;;;;;;;;4992390;28;20052;-66
2021/12/29 13:15:04;;;;;;;9.98;6.68;;;;;;;;;;4998477;28;20049;-66
2021/12/29 13:17:30;;;;;;;11.27;6.07;;;;;;;;;;5003700;28;20061;-66
2021/12/29 13:19:57;;;;;;;13.95;7.25;;;;;;;;;;4990369;28;20050;-66
2021/12/29 13:22:33;;;;;;;11.65;6.60;;;;;;;;;;4998139;28;20060;-66
2021/12/29 13:25:08;;;;;;;12.77;7.10;;;;;;;;;;4994548;28;20389;-66
2021/12/29 13:27:35;;;;;;;12.30;6.68;;;;;;;;;;5003765;28;20141;-66
2021/12/29 13:30:03;;;;;;;11.93;6.32;;;;;;;;;;4994662;28;20054;-66
2021/12/29 13:32:29;;;;;;;12.27;6.85;;;;;;;;;;5002581;28;20057;-66
2021/12/29 13:35:03;;;;;;;13.75;7.00;;;;;;;;;;4997194;28;20054;-66
2021/12/29 13:37:30;;;;;;;8.73;5.75;;;;;;;;;;5002578;28;20042;-66
2021/12/29 13:39:57;;;;;;;9.82;5.07;;;;;;;;;;5003078;28;20049;-66
2021/12/29 13:42:23;;;;;;;8.32;4.53;;;;;;;;;;4995293;28;20049;-66
2021/12/29 13:44:50;;;;;;;10.18;5.15;;;;;;;;;;4985622;28;20411;-66
2021/12/29 13:47:24;;;;;;;10.43;5.15;;;;;;;;;;4995699;28;20054;-67
2021/12/29 13:49:50;;;;;;;10.10;4.95;;;;;;;;;;5003438;28;20054;-65
2021/12/29 13:52:17;;;;;;;8.25;4.70;;;;;;;;;;4994943;28;20046;-65
2021/12/29 13:54:44;;;;;;;9.73;5.25;;;;;;;;;;5001783;28;20483;-65
2021/12/29 13:57:11;;;;;;;8.90;5.03;;;;;;;;;;4997317;28;20050;-65
2021/12/29 13:59:37;;;;;;;11.63;5.60;;;;;;;;;;4993052;28;20614;-65
2021/12/29 14:02:06;;;;;;;7.68;4.75;;;;;;;;;;5002807;28;20046;-65
2021/12/29 14:04:39;;;;;;;11.82;5.80;;;;;;;;;;4996593;28;20577;-67
2021/12/29 14:07:07;;;;;;;9.25;4.60;;;;;;;;;;4981860;28;20046;-66
2021/12/29 14:09:35;;;;;;;14.65;5.85;;;;;;;;;;4978893;28;20060;-65
2021/12/29 14:12:06;;;;;;;13.38;6.20;;;;;;;;;;4998868;28;20054;-65
2021/12/29 14:14:32;;;;;;;12.68;5.45;;;;;;;;;;5003071;28;20065;-66
2021/12/29 14:16:58;;;;;;;13.60;5.47;;;;;;;;;;4994286;28;20050;-66
2021/12/29 14:19:26;;;;;;;10.80;5.35;;;;;;;;;;5003182;28;20049;-66
2021/12/29 14:21:54;;;;;;;8.60;5.28;;;;;;;;;;4990444;28;20618;-66
2021/12/29 14:24:21;;;;;;;9.53;4.73;;;;;;;;;;4997124;28;20128;-66
2021/12/29 14:26:50;;;;;;;9.52;4.90;;;;;;;;;;4994098;28;20306;-66
2021/12/29 14:29:19;;;;;;;9.55;5.07;;;;;;;;;;5002409;28;20481;-66
2021/12/29 14:31:47;;;;;;;12.63;6.97;;;;;;;;;;5002115;28;20500;-66
2021/12/29 14:34:15;;;;;;;12.73;5.97;;;;;;;;;;4993498;28;20057;-65
2021/12/29 14:36:46;;;;;;;11.57;5.68;;;;;;;;;;4996859;28;20426;-65
2021/12/29 14:39:14;;;;;;;9.57;5.72;;;;;;;;;;4989139;28;20045;-65